Terminal Aerodrome Forecast
Issued by NWS Charleston, WV

Current Version | Previous Version | Graphics & Text | Print | Product List | Glossary On
Versions: 1 2 3 4 5 6 7 8 9 10 11 12 13 14 15 16 17 18 19 20
000
FTUS41 KRLX 230500
TAFCRW
TAF
KCRW 230534Z 2306/2406 00000KT P6SM SCT150
     FM232000 15010G19KT P6SM BKN070
     FM232300 14009G16KT 3SM -RA BR OVC050
     FM240100 14010G19KT 2SM -RA BR BKN040
     FM240400 15013G23KT 3SM -RA BR BKN040=

USA.gov is the U.S. government's official web portal to all federal, state and local government web resources and services.